createdAt,value
2023-01-01T00:02:01.125Z,20.39
2023-01-01T00:04:29.861Z,20.34
2023-01-01T00:06:57.983Z,20.31
2023-01-01T00:09:44.067Z,20.31
2023-01-01T00:12:13.937Z,20.26
2023-01-01T00:14:44.284Z,20.25
2023-01-01T00:17:12.632Z,20.28
2023-01-01T00:19:40.736Z,20.33
2023-01-01T00:22:35.197Z,20.27
2023-01-01T00:24:59.949Z,20.29
2023-01-01T00:27:29.809Z,20.25
2023-01-01T00:29:58.574Z,20.23
2023-01-01T00:32:27.877Z,20.23
2023-01-01T00:34:57.332Z,20.25
2023-01-01T00:37:25.719Z,20.27
2023-01-01T00:39:53.905Z,20.31
2023-01-01T00:42:22.089Z,20.28
2023-01-01T00:44:53.530Z,20.32
2023-01-01T00:47:21.664Z,20.29
2023-01-01T00:49:49.705Z,20.34
2023-01-01T00:52:18.063Z,20.25
2023-01-01T00:54:46.081Z,20.26
2023-01-01T00:57:14.250Z,20.30
2023-01-01T00:59:42.538Z,20.25
2023-01-01T01:02:12.032Z,20.20
2023-01-01T01:04:40.174Z,20.08
2023-01-01T01:07:08.483Z,20.09
2023-01-01T01:09:36.794Z,20.07
2023-01-01T01:12:18.083Z,20.03
2023-01-01T01:14:47.499Z,19.96
2023-01-01T01:17:17.022Z,19.95
2023-01-01T01:19:45.086Z,19.94
2023-01-01T01:22:13.334Z,19.84
2023-01-01T01:24:41.368Z,19.87
2023-01-01T01:27:09.577Z,19.87
2023-01-01T01:29:38.130Z,19.83
2023-01-01T01:32:06.831Z,19.83
2023-01-01T01:34:36.259Z,19.76
2023-01-01T01:37:05.323Z,19.75
2023-01-01T01:39:33.367Z,19.73
2023-01-01T01:42:03.645Z,19.70
2023-01-01T01:44:54.332Z,19.64
2023-01-01T01:47:28.149Z,19.61
2023-01-01T01:50:02.999Z,19.55
2023-01-01T01:52:33.323Z,19.49
2023-01-01T01:55:03.255Z,19.51
2023-01-01T01:57:32.339Z,19.41
2023-01-01T02:00:08.640Z,19.43
2023-01-01T02:02:44.775Z,19.39
2023-01-01T02:05:14.618Z,19.27
2023-01-01T02:07:43.473Z,19.28
2023-01-01T02:10:11.761Z,19.14
2023-01-01T02:12:40.045Z,19.20
2023-01-01T02:15:10.032Z,19.14
2023-01-01T02:17:45.174Z,19.12
2023-01-01T02:20:29.630Z,19.11
2023-01-01T02:23:16.966Z,19.07
2023-01-01T02:25:58.175Z,19.13
2023-01-01T02:28:45.585Z,19.09
2023-01-01T02:31:23.186Z,19.03
2023-01-01T02:33:54.786Z,19.04
2023-01-01T02:36:25.401Z,19.04
2023-01-01T02:38:56.717Z,18.97
2023-01-01T02:41:28.759Z,18.96
2023-01-01T02:46:31.315Z,18.86
2023-01-01T02:49:03.351Z,18.85
2023-01-01T02:51:42.428Z,18.82
2023-01-01T02:54:19.661Z,18.79
2023-01-01T02:56:53.472Z,18.74
2023-01-01T02:59:48.839Z,18.69
2023-01-01T03:02:28.284Z,18.62
2023-01-01T03:05:07.628Z,18.58
2023-01-01T03:07:42.599Z,18.50
2023-01-01T03:10:16.156Z,18.42
2023-01-01T03:12:50.179Z,18.37
2023-01-01T03:15:28.922Z,18.34
2023-01-01T03:18:02.981Z,18.29
2023-01-01T03:20:34.543Z,18.24
2023-01-01T03:23:08.598Z,18.20
2023-01-01T03:25:43.563Z,18.15
2023-01-01T03:28:15.575Z,18.11
2023-01-01T03:30:48.381Z,18.01
2023-01-01T03:33:22.501Z,18.03
2023-01-01T03:35:53.822Z,18.04
2023-01-01T03:38:26.302Z,18.01
2023-01-01T03:40:59.095Z,18.04
2023-01-01T03:43:38.942Z,18.06
2023-01-01T03:46:09.893Z,18.05
2023-01-01T03:48:57.026Z,18.05
2023-01-01T03:51:36.599Z,18.03
2023-01-01T03:54:13.211Z,18.04
2023-01-01T03:56:46.944Z,17.99
2023-01-01T03:59:21.715Z,17.98
2023-01-01T04:01:54.682Z,18.01
2023-01-01T04:04:23.290Z,18.00
2023-01-01T04:06:51.590Z,18.01
2023-01-01T04:09:24.276Z,18.00
2023-01-01T04:12:04.334Z,17.96
2023-01-01T04:14:34.359Z,17.93
2023-01-01T04:17:06.107Z,17.93
2023-01-01T04:19:34.811Z,17.95
2023-01-01T04:22:04.030Z,17.93
2023-01-01T04:24:32.347Z,17.92
2023-01-01T04:27:00.854Z,17.87
2023-01-01T04:29:29.109Z,17.79
2023-01-01T04:31:57.141Z,17.76
2023-01-01T04:34:26.609Z,17.75
2023-01-01T04:36:54.885Z,17.72
2023-01-01T04:39:22.890Z,17.69
2023-01-01T04:41:52.393Z,17.66
2023-01-01T04:44:20.880Z,17.66
2023-01-01T04:46:48.959Z,17.64
2023-01-01T04:49:17.135Z,17.58
2023-01-01T04:51:46.982Z,17.55
2023-01-01T04:54:15.053Z,17.54
2023-01-01T04:56:43.025Z,17.51
2023-01-01T04:59:11.234Z,17.50
2023-01-01T05:01:39.382Z,17.50
2023-01-01T05:04:07.554Z,17.52
2023-01-01T05:06:36.004Z,17.58
2023-01-01T05:09:05.525Z,17.61
2023-01-01T05:11:33.801Z,17.66
2023-01-01T05:14:03.232Z,17.64
2023-01-01T05:16:33.870Z,17.67
2023-01-01T05:19:02.355Z,17.66
2023-01-01T05:21:32.686Z,17.66
2023-01-01T05:24:02.753Z,17.66
2023-01-01T05:26:34.765Z,17.63
2023-01-01T05:29:03.503Z,17.64
2023-01-01T05:31:35.091Z,17.62
2023-01-01T05:36:35.391Z,17.70
2023-01-01T05:39:03.435Z,17.72
2023-01-01T05:41:36.173Z,17.78
2023-01-01T05:44:05.514Z,17.81
2023-01-01T05:46:34.317Z,17.83
2023-01-01T05:49:02.407Z,17.87
2023-01-01T05:54:00.291Z,17.93
2023-01-01T05:56:29.195Z,17.92
2023-01-01T05:58:58.608Z,17.90
2023-01-01T06:01:29.286Z,17.91
2023-01-01T06:03:59.636Z,17.94
2023-01-01T06:06:29.892Z,17.96
2023-01-01T06:08:59.971Z,17.98
2023-01-01T06:11:28.992Z,18.03
2023-01-01T06:13:59.851Z,17.98
2023-01-01T06:16:29.873Z,17.99
2023-01-01T06:18:58.944Z,18.03
2023-01-01T06:21:29.099Z,18.04
2023-01-01T06:23:58.803Z,18.00
2023-01-01T06:26:29.198Z,18.03
2023-01-01T06:29:00.181Z,18.01
2023-01-01T06:31:31.203Z,18.02
2023-01-01T06:34:02.639Z,18.03
2023-01-01T06:36:30.670Z,18.01
2023-01-01T06:39:00.233Z,18.01
2023-01-01T06:41:30.764Z,17.98
2023-01-01T06:44:02.011Z,17.97
2023-01-01T06:46:32.365Z,17.97
2023-01-01T06:49:02.057Z,17.97
2023-01-01T06:51:32.105Z,17.94
2023-01-01T06:54:01.302Z,17.98
2023-01-01T06:56:30.303Z,17.98
2023-01-01T06:59:00.762Z,18.00
2023-01-01T07:01:31.214Z,17.97
2023-01-01T07:04:01.608Z,18.04
2023-01-01T07:06:31.253Z,18.06
2023-01-01T07:08:59.760Z,18.09
2023-01-01T07:11:30.033Z,18.09
2023-01-01T07:13:58.121Z,18.09
2023-01-01T07:16:28.161Z,18.08
2023-01-01T07:18:57.547Z,18.05
2023-01-01T07:21:30.332Z,18.03
2023-01-01T07:24:00.167Z,18.00
2023-01-01T07:26:30.267Z,17.98
2023-01-01T07:29:06.433Z,17.98
2023-01-01T07:31:38.073Z,17.95
2023-01-01T07:34:07.202Z,17.97
2023-01-01T07:36:35.459Z,17.92
2023-01-01T07:39:03.586Z,17.87
2023-01-01T07:41:32.052Z,17.83
2023-01-01T07:44:00.215Z,17.72
2023-01-01T07:46:28.546Z,17.67
2023-01-01T07:48:58.286Z,17.61
2023-01-01T07:51:26.550Z,17.61
2023-01-01T07:53:54.551Z,17.61
2023-01-01T07:56:22.872Z,17.60
2023-01-01T07:58:50.899Z,17.58
2023-01-01T08:01:19.216Z,17.59
2023-01-01T08:03:52.514Z,17.64
2023-01-01T08:06:22.910Z,17.62
2023-01-01T08:08:51.419Z,17.71
2023-01-01T08:11:19.485Z,17.76
2023-01-01T08:13:47.569Z,17.81
2023-01-01T08:16:16.088Z,17.88
2023-01-01T08:18:44.261Z,17.93
2023-01-01T08:21:12.221Z,18.00
2023-01-01T08:23:41.830Z,18.04
2023-01-01T08:26:15.645Z,18.07
2023-01-01T08:28:44.554Z,18.16
2023-01-01T08:31:12.737Z,18.24
2023-01-01T08:33:40.770Z,18.34
2023-01-01T08:36:11.824Z,18.39
2023-01-01T08:38:39.898Z,18.44
2023-01-01T08:41:10.218Z,18.51
2023-01-01T08:43:38.728Z,18.56
2023-01-01T08:46:10.070Z,18.64
2023-01-01T08:48:39.162Z,18.67
2023-01-01T08:51:13.026Z,18.77
2023-01-01T08:53:46.985Z,18.82
2023-01-01T08:56:23.480Z,18.88
2023-01-01T08:58:55.134Z,18.92
2023-01-01T09:01:28.586Z,18.94
2023-01-01T09:03:59.440Z,19.03
2023-01-01T09:06:28.230Z,19.03
2023-01-01T09:08:59.635Z,19.01
2023-01-01T09:11:30.451Z,19.10
2023-01-01T09:13:59.180Z,19.12
2023-01-01T09:16:44.075Z,19.12
2023-01-01T09:19:16.674Z,19.22
2023-01-01T09:21:45.268Z,19.33
2023-01-01T09:24:13.799Z,19.40
2023-01-01T09:26:43.359Z,19.42
2023-01-01T09:29:11.809Z,19.46
2023-01-01T09:31:48.811Z,19.56
2023-01-01T09:34:19.378Z,19.58
2023-01-01T09:36:47.864Z,19.64
2023-01-01T09:39:19.816Z,19.66
2023-01-01T09:42:17.855Z,19.66
2023-01-01T09:45:18.618Z,19.71
2023-01-01T09:47:51.581Z,19.76
2023-01-01T09:50:23.235Z,19.81
2023-01-01T09:52:56.624Z,19.75
2023-01-01T09:55:29.746Z,19.89
2023-01-01T09:58:00.002Z,19.90
2023-01-01T10:00:34.607Z,19.89
2023-01-01T10:03:25.684Z,19.87
2023-01-01T10:06:10.241Z,19.95
2023-01-01T10:08:46.709Z,20.01
2023-01-01T10:11:24.201Z,20.17
2023-01-01T10:13:56.691Z,20.20
2023-01-01T10:16:31.663Z,20.36
2023-01-01T10:19:09.955Z,20.45
2023-01-01T10:21:47.172Z,20.51
2023-01-01T10:24:32.560Z,20.63
2023-01-01T10:27:04.420Z,20.73
2023-01-01T10:29:41.918Z,20.80
2023-01-01T10:32:19.707Z,20.97
2023-01-01T10:34:50.076Z,20.99
2023-01-01T10:37:18.548Z,21.12
2023-01-01T10:39:48.879Z,21.19
2023-01-01T10:42:17.875Z,21.16
2023-01-01T10:44:47.393Z,21.25
2023-01-01T10:47:26.510Z,21.21
2023-01-01T10:49:57.365Z,21.17
2023-01-01T10:52:28.811Z,21.19
2023-01-01T10:54:57.284Z,21.34
2023-01-01T10:57:33.176Z,21.33
2023-01-01T11:00:23.214Z,21.34
2023-01-01T11:03:15.379Z,21.39
2023-01-01T11:06:02.707Z,21.39
2023-01-01T11:08:31.974Z,21.41
2023-01-01T11:11:02.411Z,21.49
2023-01-01T11:13:32.055Z,21.47
2023-01-01T11:16:02.137Z,21.56
2023-01-01T11:18:36.221Z,21.64
2023-01-01T11:21:08.567Z,21.71
2023-01-01T11:23:39.812Z,21.78
2023-01-01T11:26:24.533Z,21.87
2023-01-01T11:29:05.001Z,21.96
2023-01-01T11:31:39.845Z,21.96
2023-01-01T11:34:29.689Z,21.99
2023-01-01T11:37:24.765Z,22.14
2023-01-01T11:39:55.073Z,22.26
2023-01-01T11:42:25.878Z,22.27
2023-01-01T11:44:56.771Z,22.21
2023-01-01T11:47:30.712Z,22.30
2023-01-01T11:50:05.777Z,22.24
2023-01-01T11:52:40.599Z,22.19
2023-01-01T11:55:19.698Z,21.92
2023-01-01T11:57:57.521Z,22.02
2023-01-01T12:00:26.417Z,22.06
2023-01-01T12:03:00.992Z,22.04
2023-01-01T12:05:43.589Z,22.12
2023-01-01T12:08:20.139Z,22.16
2023-01-01T12:10:54.038Z,22.09
2023-01-01T12:13:27.036Z,22.14
2023-01-01T12:16:04.425Z,22.14
2023-01-01T12:18:40.941Z,22.14
2023-01-01T12:21:16.689Z,22.03
2023-01-01T12:23:49.198Z,22.14
2023-01-01T12:26:25.129Z,22.14
2023-01-01T12:29:26.186Z,22.11
2023-01-01T12:32:06.438Z,22.06
2023-01-01T12:34:45.247Z,21.99
2023-01-01T12:37:23.679Z,21.96
2023-01-01T12:40:30.316Z,21.92
2023-01-01T12:43:10.833Z,21.93
2023-01-01T12:46:03.523Z,21.76
2023-01-01T12:48:43.957Z,21.86
2023-01-01T12:51:28.055Z,21.86
2023-01-01T12:54:10.831Z,21.75
2023-01-01T12:56:47.152Z,21.82
2023-01-01T12:59:19.092Z,21.70
2023-01-01T13:01:50.197Z,21.67
2023-01-01T13:04:21.608Z,21.73
2023-01-01T13:06:56.290Z,21.63
2023-01-01T13:09:27.338Z,21.65
2023-01-01T13:11:59.731Z,21.55
2023-01-01T13:14:28.425Z,21.60
2023-01-01T13:16:58.684Z,21.59
2023-01-01T13:19:33.100Z,21.61
2023-01-01T13:22:38.984Z,21.64
2023-01-01T13:25:19.986Z,21.58
2023-01-01T13:28:11.666Z,21.31
2023-01-01T13:30:50.627Z,21.47
2023-01-01T13:33:27.123Z,21.32
2023-01-01T13:36:32.892Z,21.38
2023-01-01T13:39:02.601Z,21.35
2023-01-01T13:41:32.730Z,21.38
2023-01-01T13:44:19.534Z,21.12
2023-01-01T13:47:05.993Z,21.17
2023-01-01T13:49:48.176Z,21.26
2023-01-01T13:52:50.926Z,21.17
2023-01-01T13:55:39.671Z,21.24
2023-01-01T13:58:37.740Z,21.21
2023-01-01T14:01:35.674Z,21.12
2023-01-01T14:04:09.638Z,21.07
2023-01-01T14:06:40.429Z,21.09
2023-01-01T14:09:14.322Z,21.09
2023-01-01T14:11:46.718Z,20.99
2023-01-01T14:14:28.295Z,21.03
2023-01-01T14:16:58.563Z,21.04
2023-01-01T14:19:28.168Z,21.03
2023-01-01T14:21:57.150Z,20.99
2023-01-01T14:24:27.054Z,20.98
2023-01-01T14:26:56.973Z,20.92
2023-01-01T14:29:28.064Z,20.88
2023-01-01T14:32:01.102Z,20.83
2023-01-01T14:34:31.332Z,20.81
2023-01-01T14:37:01.494Z,20.87
2023-01-01T14:39:31.565Z,20.86
2023-01-01T14:42:04.737Z,20.81
2023-01-01T14:44:37.222Z,20.80
2023-01-01T14:47:06.460Z,20.80
2023-01-01T14:49:38.399Z,20.75
2023-01-01T14:52:10.283Z,20.77
2023-01-01T14:54:43.624Z,20.73
2023-01-01T14:57:19.454Z,20.72
2023-01-01T14:59:49.263Z,20.69
2023-01-01T15:02:22.366Z,20.69
2023-01-01T15:04:51.132Z,20.54
2023-01-01T15:07:23.034Z,20.60
2023-01-01T15:09:51.470Z,20.57
2023-01-01T15:12:22.873Z,20.61
2023-01-01T15:14:54.167Z,20.49
2023-01-01T15:17:25.237Z,20.53
2023-01-01T15:20:05.941Z,20.42
2023-01-01T15:22:39.279Z,20.48
2023-01-01T15:25:14.937Z,20.51
2023-01-01T15:27:50.104Z,20.51
2023-01-01T15:30:26.024Z,20.46
2023-01-01T15:32:55.755Z,20.45
2023-01-01T15:35:31.753Z,20.46
2023-01-01T15:38:02.440Z,20.43
2023-01-01T15:40:34.630Z,20.34
2023-01-01T15:43:19.122Z,20.43
2023-01-01T15:45:55.879Z,20.48
2023-01-01T15:48:32.749Z,20.46
2023-01-01T15:51:04.459Z,20.48
2023-01-01T15:53:41.765Z,20.42
2023-01-01T15:56:12.780Z,20.42
2023-01-01T15:58:48.178Z,20.42
2023-01-01T16:01:21.661Z,20.38
2023-01-01T16:03:53.191Z,20.37
2023-01-01T16:06:22.714Z,20.35
2023-01-01T16:08:51.109Z,20.35
2023-01-01T16:11:19.524Z,20.31
2023-01-01T16:13:48.993Z,20.31
2023-01-01T16:16:27.931Z,20.27
2023-01-01T16:18:57.054Z,20.30
2023-01-01T16:21:27.947Z,20.28
2023-01-01T16:23:56.492Z,20.29
2023-01-01T16:26:25.037Z,20.30
2023-01-01T16:28:54.769Z,20.30
2023-01-01T16:31:27.970Z,20.20
2023-01-01T16:33:58.049Z,20.23
2023-01-01T16:36:27.430Z,20.25
2023-01-01T16:38:55.647Z,20.25
2023-01-01T16:41:24.329Z,20.29
2023-01-01T16:43:53.843Z,20.28
2023-01-01T16:46:21.994Z,20.26
2023-01-01T16:48:50.248Z,20.21
2023-01-01T16:51:20.635Z,20.19
2023-01-01T16:53:49.657Z,20.13
2023-01-01T16:56:18.030Z,20.05
2023-01-01T16:58:49.489Z,20.00
2023-01-01T17:01:20.734Z,19.94
2023-01-01T17:03:48.753Z,19.89
2023-01-01T17:06:17.527Z,19.80
2023-01-01T17:08:45.826Z,19.76
2023-01-01T17:11:16.622Z,19.70
2023-01-01T17:13:46.717Z,19.62
2023-01-01T17:16:25.213Z,19.58
2023-01-01T17:19:16.115Z,19.55
2023-01-01T17:21:47.103Z,19.47
2023-01-01T17:24:15.987Z,19.46
2023-01-01T17:26:44.193Z,19.41
2023-01-01T17:29:12.881Z,19.28
2023-01-01T17:31:40.972Z,19.29
2023-01-01T17:34:15.009Z,19.29
2023-01-01T17:36:45.143Z,19.23
2023-01-01T17:39:13.698Z,19.23
2023-01-01T17:41:42.015Z,19.24
2023-01-01T17:44:11.199Z,19.23
2023-01-01T17:46:39.619Z,19.23
2023-01-01T17:49:09.044Z,19.23
2023-01-01T17:51:39.389Z,19.25
2023-01-01T17:54:11.737Z,19.21
2023-01-01T17:56:40.553Z,19.24
2023-01-01T17:59:09.469Z,19.20
2023-01-01T18:01:37.790Z,19.23
2023-01-01T18:04:08.224Z,19.18
2023-01-01T18:06:42.590Z,19.22
2023-01-01T18:09:12.968Z,19.23
2023-01-01T18:11:42.197Z,19.24
2023-01-01T18:14:11.101Z,19.28
2023-01-01T18:16:41.671Z,19.28
2023-01-01T18:19:09.701Z,19.24
2023-01-01T18:21:39.105Z,19.26
2023-01-01T18:24:12.927Z,19.25
2023-01-01T18:26:41.205Z,19.23
2023-01-01T18:29:09.695Z,19.20
2023-01-01T18:31:37.937Z,19.15
2023-01-01T18:34:06.995Z,19.21
2023-01-01T18:36:36.206Z,19.13
2023-01-01T18:39:13.994Z,19.17
2023-01-01T18:42:04.442Z,19.13
2023-01-01T18:44:33.744Z,19.12
2023-01-01T18:47:13.413Z,19.15
2023-01-01T18:49:47.507Z,19.14
2023-01-01T18:52:21.726Z,19.12
2023-01-01T18:55:02.074Z,19.09
2023-01-01T18:57:31.093Z,19.13
2023-01-01T19:00:00.444Z,19.15
2023-01-01T19:02:36.270Z,19.10
2023-01-01T19:05:17.860Z,19.08
2023-01-01T19:07:51.177Z,19.09
2023-01-01T19:10:21.265Z,18.98
2023-01-01T19:12:54.686Z,19.03
2023-01-01T19:15:23.743Z,19.12
2023-01-01T19:17:55.218Z,19.07
2023-01-01T19:20:25.311Z,19.07
2023-01-01T19:22:53.400Z,19.12
2023-01-01T19:25:37.057Z,19.05
2023-01-01T19:28:31.865Z,19.05
2023-01-01T19:31:00.496Z,19.07
2023-01-01T19:33:30.032Z,19.02
2023-01-01T19:35:58.231Z,19.06
2023-01-01T19:38:26.396Z,19.09
2023-01-01T19:40:56.252Z,19.13
2023-01-01T19:43:24.280Z,19.07
2023-01-01T19:45:52.357Z,19.09
2023-01-01T19:48:20.555Z,19.10
2023-01-01T19:50:48.640Z,19.08
2023-01-01T19:53:16.712Z,19.07
2023-01-01T19:55:45.077Z,19.08
2023-01-01T19:58:14.453Z,19.06
2023-01-01T20:00:42.558Z,19.07
2023-01-01T20:03:43.293Z,19.07
2023-01-01T20:05:59.401Z,19.05
2023-01-01T20:08:28.635Z,18.99
2023-01-01T20:10:56.753Z,19.03
2023-01-01T20:13:26.273Z,19.06
2023-01-01T20:15:54.756Z,19.06
2023-01-01T20:18:22.845Z,19.06
2023-01-01T20:21:08.601Z,19.04
2023-01-01T20:23:36.814Z,19.11
2023-01-01T20:26:05.167Z,19.11
2023-01-01T20:28:51.963Z,19.13
2023-01-01T20:31:20.483Z,19.08
2023-01-01T20:33:48.632Z,19.09
2023-01-01T20:36:34.358Z,19.12
2023-01-01T20:39:02.924Z,19.08
2023-01-01T20:41:31.090Z,19.11
2023-01-01T20:44:01.756Z,19.13
2023-01-01T20:46:30.867Z,19.10
2023-01-01T20:48:59.336Z,19.11
2023-01-01T20:51:28.006Z,19.10
2023-01-01T20:53:56.539Z,19.08
2023-01-01T20:56:24.676Z,19.15
2023-01-01T20:58:57.625Z,19.17
2023-01-01T21:01:30.159Z,19.17
2023-01-01T21:03:58.486Z,19.16
2023-01-01T21:06:26.516Z,19.13
2023-01-01T21:08:56.414Z,19.12
2023-01-01T21:11:24.498Z,19.08
2023-01-01T21:13:52.579Z,19.05
2023-01-01T21:16:28.854Z,19.00
2023-01-01T21:18:59.255Z,18.97
2023-01-01T21:21:31.541Z,18.91
2023-01-01T21:24:03.539Z,18.92
2023-01-01T21:26:36.806Z,18.91
2023-01-01T21:29:12.662Z,18.88
2023-01-01T21:31:42.844Z,18.85
2023-01-01T21:34:35.506Z,18.88
2023-01-01T21:37:14.668Z,18.89
2023-01-01T21:39:42.813Z,18.82
2023-01-01T21:42:24.293Z,18.85
2023-01-01T21:44:57.650Z,18.89
2023-01-01T21:47:27.194Z,18.86
2023-01-01T21:49:57.324Z,18.86
2023-01-01T21:52:26.445Z,18.88
2023-01-01T21:54:55.740Z,18.89
2023-01-01T21:57:25.587Z,18.91
2023-01-01T21:59:55.181Z,18.93
2023-01-01T22:02:46.911Z,18.92
2023-01-01T22:05:34.135Z,18.98
2023-01-01T22:08:21.063Z,18.98
2023-01-01T22:10:49.450Z,19.00
2023-01-01T22:13:19.615Z,18.99
2023-01-01T22:15:47.754Z,18.99
2023-01-01T22:18:23.965Z,19.01
2023-01-01T22:20:54.078Z,19.05
2023-01-01T22:23:34.994Z,19.03
2023-01-01T22:26:13.071Z,19.04
2023-01-01T22:28:44.754Z,19.01
2023-01-01T22:31:18.829Z,18.97
2023-01-01T22:33:48.961Z,18.93
2023-01-01T22:36:21.427Z,18.91
2023-01-01T22:38:50.744Z,18.88
2023-01-01T22:41:18.999Z,18.91
2023-01-01T22:43:48.161Z,18.89
2023-01-01T22:46:21.085Z,18.84
2023-01-01T22:48:54.364Z,18.81
2023-01-01T22:51:34.534Z,18.79
2023-01-01T22:54:02.517Z,18.78
2023-01-01T22:56:30.706Z,18.81
2023-01-01T22:58:58.753Z,18.78
2023-01-01T23:01:26.930Z,18.87
2023-01-01T23:03:55.795Z,18.85
2023-01-01T23:06:24.961Z,18.89
2023-01-01T23:08:54.690Z,18.86
2023-01-01T23:11:23.684Z,18.89
2023-01-01T23:14:10.284Z,18.89
2023-01-01T23:16:38.736Z,18.88
2023-01-01T23:19:07.146Z,18.82
2023-01-01T23:21:37.149Z,18.77
2023-01-01T23:24:12.080Z,18.76
2023-01-01T23:26:41.463Z,18.73
2023-01-01T23:29:12.324Z,18.72
2023-01-01T23:31:42.176Z,18.67
2023-01-01T23:34:10.914Z,18.59
2023-01-01T23:36:40.137Z,18.62
2023-01-01T23:39:09.608Z,18.58
2023-01-01T23:41:37.956Z,18.57
2023-01-01T23:44:06.483Z,18.57
2023-01-01T23:46:36.494Z,18.55
2023-01-01T23:49:05.696Z,18.51
2023-01-01T23:51:34.288Z,18.54
2023-01-01T23:54:02.299Z,18.50
2023-01-01T23:56:31.950Z,18.54
2023-01-01T23:58:59.986Z,18.50
